createdAt,value
2023-02-01T00:01:25.498Z,5.18
2023-02-01T00:03:53.423Z,6.43
2023-02-01T00:06:21.611Z,5.63
2023-02-01T00:08:49.652Z,4.78
2023-02-01T00:11:17.885Z,4.95
2023-02-01T00:13:46.350Z,5.32
2023-02-01T00:16:17.287Z,6.22
2023-02-01T00:18:47.620Z,4.57
2023-02-01T00:21:17.027Z,4.70
2023-02-01T00:23:45.255Z,5.57
2023-02-01T00:26:16.433Z,5.20
2023-02-01T00:28:44.469Z,5.03
2023-02-01T00:31:12.839Z,5.45
2023-02-01T00:33:40.848Z,4.68
2023-02-01T00:36:11.550Z,5.13
2023-02-01T00:38:40.217Z,5.18
2023-02-01T00:41:11.840Z,5.10
2023-02-01T00:43:41.244Z,5.57
2023-02-01T00:46:10.978Z,4.13
2023-02-01T00:48:39.193Z,5.03
2023-02-01T00:51:09.739Z,4.50
2023-02-01T00:53:39.617Z,4.50
2023-02-01T00:56:08.666Z,5.28
2023-02-01T00:58:37.123Z,4.60
2023-02-01T01:01:08.245Z,4.70
2023-02-01T01:03:39.193Z,3.88
2023-02-01T01:06:10.111Z,5.38
2023-02-01T01:08:40.669Z,4.32
2023-02-01T01:11:10.166Z,5.35
2023-02-01T01:13:38.833Z,5.05
2023-02-01T01:16:09.398Z,5.13
2023-02-01T01:18:37.785Z,5.03
2023-02-01T01:21:07.010Z,5.68
2023-02-01T01:23:35.959Z,5.68
2023-02-01T01:26:09.078Z,4.90
2023-02-01T01:28:38.075Z,6.20
2023-02-01T01:31:06.441Z,5.20
2023-02-01T01:33:34.879Z,5.00
2023-02-01T01:36:03.169Z,5.40
2023-02-01T01:38:31.165Z,4.63
2023-02-01T01:41:00.007Z,4.60
2023-02-01T01:43:52.079Z,5.38
2023-02-01T01:46:22.480Z,4.95
2023-02-01T01:48:54.450Z,6.25
2023-02-01T01:51:25.664Z,6.00
2023-02-01T01:54:01.257Z,5.20
2023-02-01T01:56:31.966Z,4.55
2023-02-01T01:59:02.879Z,6.13
2023-02-01T02:01:31.092Z,5.75
2023-02-01T02:04:00.524Z,4.88
2023-02-01T02:06:46.492Z,5.00
2023-02-01T02:09:14.947Z,6.80
2023-02-01T02:11:43.180Z,6.47
2023-02-01T02:14:16.536Z,5.07
2023-02-01T02:17:02.694Z,5.28
2023-02-01T02:20:06.984Z,4.35
2023-02-01T02:23:08.741Z,5.40
2023-02-01T02:26:18.690Z,5.07
2023-02-01T02:29:52.956Z,4.50
2023-02-01T02:32:55.085Z,4.77
2023-02-01T02:35:32.592Z,4.60
2023-02-01T02:38:13.566Z,5.65
2023-02-01T02:40:50.474Z,4.18
2023-02-01T02:43:41.619Z,6.55
2023-02-01T02:46:37.516Z,4.72
2023-02-01T02:49:13.568Z,3.60
2023-02-01T02:52:05.148Z,4.75
2023-02-01T02:54:49.745Z,5.35
2023-02-01T02:57:42.264Z,5.22
2023-02-01T03:00:31.924Z,5.28
2023-02-01T03:03:17.869Z,4.78
2023-02-01T03:05:49.180Z,4.80
2023-02-01T03:08:20.853Z,5.20
2023-02-01T03:11:00.112Z,5.35
2023-02-01T03:13:38.507Z,4.55
2023-02-01T03:16:14.545Z,4.57
2023-02-01T03:18:51.133Z,4.50
2023-02-01T03:21:24.121Z,4.95
2023-02-01T03:23:58.499Z,5.03
2023-02-01T03:26:31.674Z,5.13
2023-02-01T03:29:06.015Z,5.53
2023-02-01T03:31:34.906Z,3.70
2023-02-01T03:34:04.638Z,4.90
2023-02-01T03:36:39.543Z,4.75
2023-02-01T03:39:17.456Z,4.78
2023-02-01T03:41:52.331Z,4.57
2023-02-01T03:44:25.197Z,5.47
2023-02-01T03:46:57.806Z,4.88
2023-02-01T03:49:31.256Z,4.50
2023-02-01T03:52:01.634Z,4.50
2023-02-01T03:54:32.701Z,3.33
2023-02-01T03:57:07.544Z,5.53
2023-02-01T03:59:38.729Z,5.13
2023-02-01T04:02:06.941Z,5.22
2023-02-01T04:04:36.039Z,6.13
2023-02-01T04:07:05.301Z,4.93
2023-02-01T04:09:34.801Z,5.35
2023-02-01T04:12:03.427Z,5.45
2023-02-01T04:14:31.500Z,4.57
2023-02-01T04:16:59.687Z,5.82
2023-02-01T04:19:27.916Z,5.32
2023-02-01T04:21:55.955Z,5.47
2023-02-01T04:24:23.995Z,5.32
2023-02-01T04:26:53.544Z,5.50
2023-02-01T04:29:21.619Z,4.72
2023-02-01T04:31:50.360Z,4.95
2023-02-01T04:34:18.684Z,5.78
2023-02-01T04:36:47.438Z,5.40
2023-02-01T04:39:15.632Z,4.65
2023-02-01T04:41:43.769Z,4.68
2023-02-01T04:44:16.328Z,4.97
2023-02-01T04:46:44.557Z,5.07
2023-02-01T04:49:13.714Z,6.63
2023-02-01T04:51:42.718Z,4.97
2023-02-01T04:54:13.350Z,4.68
2023-02-01T04:56:42.038Z,4.95
2023-02-01T04:59:15.400Z,5.10
2023-02-01T05:01:44.367Z,4.97
2023-02-01T05:04:13.612Z,4.47
2023-02-01T05:06:41.815Z,5.03
2023-02-01T05:09:09.917Z,6.22
2023-02-01T05:11:55.207Z,4.60
2023-02-01T05:14:24.840Z,4.03
2023-02-01T05:16:53.545Z,5.47
2023-02-01T05:19:22.827Z,4.35
2023-02-01T05:21:50.922Z,4.40
2023-02-01T05:24:21.615Z,4.28
2023-02-01T05:26:50.889Z,4.63
2023-02-01T05:29:20.013Z,4.50
2023-02-01T05:31:50.306Z,5.28
2023-02-01T05:34:18.534Z,4.88
2023-02-01T05:36:46.682Z,5.55
2023-02-01T05:39:15.026Z,4.70
2023-02-01T05:41:43.501Z,3.80
2023-02-01T05:44:13.412Z,4.05
2023-02-01T05:46:41.734Z,3.85
2023-02-01T05:49:11.698Z,4.50
2023-02-01T05:51:39.701Z,4.85
2023-02-01T05:54:08.175Z,5.53
2023-02-01T05:56:36.105Z,4.95
2023-02-01T05:59:04.691Z,5.38
2023-02-01T06:01:32.770Z,4.50
2023-02-01T06:04:01.013Z,4.30
2023-02-01T06:06:31.028Z,5.05
2023-02-01T06:08:59.641Z,5.05
2023-02-01T06:11:33.081Z,5.38
2023-02-01T06:16:29.973Z,4.65
2023-02-01T06:18:59.207Z,5.50
2023-02-01T06:21:27.594Z,4.78
2023-02-01T06:23:58.783Z,4.18
2023-02-01T06:26:26.981Z,5.40
2023-02-01T06:28:56.275Z,4.72
2023-02-01T06:31:26.407Z,5.53
2023-02-01T06:33:55.109Z,5.75
2023-02-01T06:36:23.749Z,5.18
2023-02-01T06:38:52.222Z,5.32
2023-02-01T06:41:21.982Z,5.20
2023-02-01T06:43:50.519Z,4.45
2023-02-01T06:46:18.764Z,4.88
2023-02-01T06:48:47.504Z,6.13
2023-02-01T06:51:22.701Z,5.38
2023-02-01T06:53:51.374Z,4.53
2023-02-01T06:56:20.638Z,5.13
2023-02-01T06:58:50.328Z,4.55
2023-02-01T07:01:19.123Z,5.40
2023-02-01T07:03:50.935Z,4.30
2023-02-01T07:06:19.498Z,5.47
2023-02-01T07:08:47.663Z,5.32
2023-02-01T07:11:17.290Z,4.97
2023-02-01T07:13:45.839Z,4.40
2023-02-01T07:16:17.944Z,4.50
2023-02-01T07:18:46.964Z,5.18
2023-02-01T07:21:15.801Z,4.47
2023-02-01T07:23:43.893Z,5.25
2023-02-01T07:26:14.326Z,5.47
2023-02-01T07:28:43.212Z,5.47
2023-02-01T07:31:14.538Z,7.57
2023-02-01T07:33:44.823Z,5.28
2023-02-01T07:36:15.372Z,5.20
2023-02-01T07:38:43.694Z,5.47
2023-02-01T07:41:12.744Z,5.43
2023-02-01T07:43:41.087Z,6.22
2023-02-01T07:46:09.238Z,4.78
2023-02-01T07:48:38.302Z,5.40
2023-02-01T07:51:11.318Z,6.00
2023-02-01T07:53:39.895Z,5.68
2023-02-01T07:56:13.652Z,5.25
2023-02-01T07:58:41.723Z,5.13
2023-02-01T08:01:21.520Z,4.80
2023-02-01T08:03:52.538Z,5.60
2023-02-01T08:06:25.865Z,5.00
2023-02-01T08:08:54.914Z,6.22
2023-02-01T08:11:25.259Z,4.00
2023-02-01T08:13:55.751Z,4.65
2023-02-01T08:16:25.852Z,5.35
2023-02-01T08:18:55.215Z,4.43
2023-02-01T08:21:26.559Z,5.60
2023-02-01T08:23:57.234Z,3.92
2023-02-01T08:26:27.696Z,4.80
2023-02-01T08:28:59.197Z,3.65
2023-02-01T08:31:30.227Z,4.75
2023-02-01T08:34:00.659Z,5.22
2023-02-01T08:36:31.399Z,4.75
2023-02-01T08:39:00.291Z,4.15
2023-02-01T08:41:31.082Z,5.50
2023-02-01T08:44:00.115Z,5.13
2023-02-01T08:46:29.531Z,5.40
2023-02-01T08:48:58.580Z,4.30
2023-02-01T08:51:26.749Z,4.88
2023-02-01T08:53:56.162Z,4.43
2023-02-01T08:56:25.016Z,4.55
2023-02-01T08:58:53.957Z,5.97
2023-02-01T09:01:22.298Z,3.92
2023-02-01T09:03:51.149Z,4.88
2023-02-01T09:06:20.002Z,5.13
2023-02-01T09:08:48.801Z,4.30
2023-02-01T09:11:20.311Z,4.40
2023-02-01T09:13:50.050Z,4.63
2023-02-01T09:16:18.904Z,4.45
2023-02-01T09:18:56.070Z,4.47
2023-02-01T09:21:31.207Z,4.10
2023-02-01T09:23:59.928Z,4.25
2023-02-01T09:26:32.709Z,4.50
2023-02-01T09:29:03.141Z,4.35
2023-02-01T09:31:32.329Z,4.18
2023-02-01T09:34:00.793Z,3.60
2023-02-01T09:36:31.108Z,4.07
2023-02-01T09:38:59.632Z,4.55
2023-02-01T09:41:40.225Z,3.58
2023-02-01T09:44:21.339Z,4.10
2023-02-01T09:46:49.666Z,3.47
2023-02-01T09:49:22.891Z,3.90
2023-02-01T09:51:53.441Z,4.00
2023-02-01T09:54:25.753Z,3.97
2023-02-01T09:56:59.015Z,4.78
2023-02-01T09:59:34.665Z,5.20
2023-02-01T10:02:05.411Z,4.72
2023-02-01T10:04:34.646Z,3.88
2023-02-01T10:07:13.761Z,4.35
2023-02-01T10:10:01.220Z,4.35
2023-02-01T10:12:51.506Z,4.90
2023-02-01T10:15:40.697Z,3.83
2023-02-01T10:18:36.544Z,4.03
2023-02-01T10:21:13.223Z,4.15
2023-02-01T10:24:05.994Z,4.25
2023-02-01T10:26:42.952Z,4.95
2023-02-01T10:29:18.044Z,5.40
2023-02-01T10:31:46.556Z,3.97
2023-02-01T10:34:22.622Z,4.03
2023-02-01T10:36:57.811Z,4.47
2023-02-01T10:39:26.664Z,4.88
2023-02-01T10:41:57.244Z,4.00
2023-02-01T10:44:30.843Z,5.68
2023-02-01T10:46:59.177Z,4.28
2023-02-01T10:49:35.912Z,4.07
2023-02-01T10:52:13.728Z,3.65
2023-02-01T10:54:43.025Z,3.65
2023-02-01T10:57:12.973Z,3.95
2023-02-01T10:59:44.916Z,4.05
2023-02-01T11:02:22.697Z,4.93
2023-02-01T11:04:52.317Z,3.03
2023-02-01T11:07:26.712Z,4.10
2023-02-01T11:09:57.444Z,3.95
2023-02-01T11:12:33.249Z,3.90
2023-02-01T11:15:17.505Z,4.55
2023-02-01T11:17:47.941Z,4.15
2023-02-01T11:20:20.478Z,5.57
2023-02-01T11:22:50.427Z,4.18
2023-02-01T11:25:20.211Z,4.15
2023-02-01T11:27:55.243Z,3.33
2023-02-01T11:30:34.335Z,3.33
2023-02-01T11:33:06.757Z,5.32
2023-02-01T11:35:41.237Z,2.90
2023-02-01T11:38:23.961Z,1.10
2023-02-01T11:40:53.502Z,1.25
2023-02-01T11:43:29.433Z,1.10
2023-02-01T11:46:02.673Z,1.58
2023-02-01T11:51:24.118Z,1.55
2023-02-01T11:54:11.183Z,1.58
2023-02-01T11:56:47.787Z,1.48
2023-02-01T11:59:34.040Z,1.65
2023-02-01T12:02:40.993Z,1.10
2023-02-01T12:05:37.876Z,1.70
2023-02-01T12:08:29.103Z,2.38
2023-02-01T12:11:12.015Z,2.45
2023-02-01T12:13:55.808Z,3.00
2023-02-01T12:16:35.295Z,2.83
2023-02-01T12:19:29.561Z,2.90
2023-02-01T12:25:12.041Z,4.70
2023-02-01T12:27:55.852Z,2.78
2023-02-01T12:30:57.878Z,4.55
2023-02-01T12:33:42.706Z,6.43
2023-02-01T12:36:27.528Z,6.05
2023-02-01T12:39:05.572Z,4.60
2023-02-01T12:41:52.082Z,5.70
2023-02-01T12:44:30.164Z,5.57
2023-02-01T12:47:01.628Z,5.78
2023-02-01T12:49:40.849Z,5.85
2023-02-01T12:52:16.154Z,6.15
2023-02-01T12:54:49.536Z,5.32
2023-02-01T12:57:23.866Z,5.85
2023-02-01T12:59:58.961Z,5.43
2023-02-01T13:02:34.557Z,5.60
2023-02-01T13:05:14.234Z,4.50
2023-02-01T13:07:49.266Z,5.22
2023-02-01T13:10:24.673Z,5.30
2023-02-01T13:13:00.939Z,5.15
2023-02-01T13:15:34.127Z,4.60
2023-02-01T13:18:07.951Z,5.30
2023-02-01T13:20:43.993Z,5.78
2023-02-01T13:23:20.918Z,5.40
2023-02-01T13:25:51.188Z,4.72
2023-02-01T13:28:25.925Z,4.85
2023-02-01T13:31:13.083Z,5.63
2023-02-01T13:34:02.354Z,4.75
2023-02-01T13:36:54.769Z,5.20
2023-02-01T13:39:59.288Z,6.00
2023-02-01T13:42:32.438Z,6.72
2023-02-01T13:45:05.515Z,5.35
2023-02-01T13:47:43.147Z,5.45
2023-02-01T13:50:22.668Z,5.25
2023-02-01T13:52:57.511Z,5.28
2023-02-01T13:55:30.392Z,4.93
2023-02-01T13:58:15.833Z,4.50
2023-02-01T14:00:45.697Z,5.10
2023-02-01T14:03:20.530Z,5.18
2023-02-01T14:06:10.833Z,5.90
2023-02-01T14:08:43.430Z,5.90
2023-02-01T14:11:43.701Z,6.63
2023-02-01T14:14:47.064Z,6.03
2023-02-01T14:17:40.009Z,4.90
2023-02-01T14:20:41.838Z,4.07
2023-02-01T14:23:16.908Z,5.45
2023-02-01T14:25:59.087Z,5.57
2023-02-01T14:28:31.483Z,5.10
2023-02-01T14:31:01.804Z,4.43
2023-02-01T14:33:30.712Z,4.90
2023-02-01T14:36:10.344Z,5.43
2023-02-01T14:38:40.927Z,5.38
2023-02-01T14:41:31.509Z,5.18
2023-02-01T14:44:27.910Z,5.00
2023-02-01T14:47:14.458Z,5.88
2023-02-01T14:49:52.249Z,6.15
2023-02-01T14:52:24.609Z,5.93
2023-02-01T14:54:58.513Z,4.40
2023-02-01T15:00:07.914Z,5.68
2023-02-01T15:02:41.600Z,5.43
2023-02-01T15:07:52.596Z,4.90
2023-02-01T15:10:24.556Z,4.68
2023-02-01T15:12:54.390Z,5.32
2023-02-01T15:15:25.672Z,6.20
2023-02-01T15:17:58.645Z,4.95
2023-02-01T15:20:29.644Z,4.83
2023-02-01T15:23:02.805Z,4.82
2023-02-01T15:25:34.256Z,5.10
2023-02-01T15:28:03.305Z,5.22
2023-02-01T15:30:35.823Z,5.13
2023-02-01T15:33:17.574Z,4.65
2023-02-01T15:35:48.794Z,4.85
2023-02-01T15:38:34.807Z,5.40
2023-02-01T15:41:09.075Z,5.22
2023-02-01T15:43:41.727Z,5.05
2023-02-01T15:46:14.143Z,5.72
2023-02-01T15:48:48.646Z,6.00
2023-02-01T15:51:20.149Z,5.90
2023-02-01T15:53:55.583Z,5.63
2023-02-01T15:56:29.504Z,4.47
2023-02-01T15:59:01.533Z,4.53
2023-02-01T16:01:30.921Z,4.55
2023-02-01T16:04:17.748Z,5.63
2023-02-01T16:06:52.212Z,5.60
2023-02-01T16:09:22.759Z,6.13
2023-02-01T16:11:57.109Z,4.85
2023-02-01T16:14:26.945Z,5.25
2023-02-01T16:17:00.194Z,4.00
2023-02-01T16:19:30.150Z,4.45
2023-02-01T16:21:59.271Z,4.47
2023-02-01T16:24:28.836Z,6.85
2023-02-01T16:26:57.408Z,5.97
2023-02-01T16:29:25.825Z,5.00
2023-02-01T16:31:54.541Z,4.70
2023-02-01T16:34:22.800Z,4.45
2023-02-01T16:36:54.542Z,5.55
2023-02-01T16:39:23.659Z,4.88
2023-02-01T16:41:52.710Z,5.38
2023-02-01T16:44:21.230Z,4.72
2023-02-01T16:46:51.100Z,5.30
2023-02-01T16:49:22.263Z,4.78
2023-02-01T16:51:54.869Z,4.15
2023-02-01T16:54:24.224Z,4.38
2023-02-01T16:56:52.949Z,4.57
2023-02-01T16:59:21.443Z,4.50
2023-02-01T17:01:50.878Z,3.92
2023-02-01T17:04:21.891Z,4.65
2023-02-01T17:06:52.038Z,5.50
2023-02-01T17:09:21.826Z,3.42
2023-02-01T17:11:50.191Z,4.10
2023-02-01T17:14:20.175Z,4.60
2023-02-01T17:16:51.263Z,4.30
2023-02-01T17:19:24.613Z,5.00
2023-02-01T17:21:59.867Z,4.72
2023-02-01T17:24:46.462Z,4.57
2023-02-01T17:27:17.453Z,4.15
2023-02-01T17:29:47.414Z,3.88
2023-02-01T17:32:21.617Z,4.68
2023-02-01T17:34:50.784Z,3.95
2023-02-01T17:37:26.901Z,3.97
2023-02-01T17:39:58.198Z,3.58
2023-02-01T17:42:27.824Z,3.97
2023-02-01T17:44:59.079Z,3.55
2023-02-01T17:47:27.341Z,3.65
2023-02-01T17:49:57.433Z,3.85
2023-02-01T17:52:29.322Z,4.40
2023-02-01T17:54:57.589Z,3.70
2023-02-01T17:57:25.818Z,3.20
2023-02-01T17:59:54.097Z,3.45
2023-02-01T18:02:25.998Z,3.85
2023-02-01T18:04:54.100Z,3.83
2023-02-01T18:07:22.486Z,3.40
2023-02-01T18:09:52.585Z,4.22
2023-02-01T18:12:23.718Z,3.85
2023-02-01T18:14:52.212Z,3.58
2023-02-01T18:17:20.641Z,3.42
2023-02-01T18:19:48.714Z,3.38
2023-02-01T18:22:20.236Z,4.07
2023-02-01T18:24:48.193Z,4.10
2023-02-01T18:27:17.687Z,3.90
2023-02-01T18:29:45.659Z,3.55
2023-02-01T18:32:13.768Z,3.72
2023-02-01T18:34:41.933Z,4.78
2023-02-01T18:37:10.313Z,4.20
2023-02-01T18:39:39.968Z,5.32
2023-02-01T18:42:12.092Z,5.90
2023-02-01T18:44:42.060Z,4.57
2023-02-01T18:47:10.812Z,4.82
2023-02-01T18:49:39.324Z,4.00
2023-02-01T18:52:07.633Z,4.78
2023-02-01T18:54:35.589Z,4.03
2023-02-01T18:57:04.595Z,4.50
2023-02-01T18:59:32.845Z,3.42
2023-02-01T19:02:04.294Z,4.25
2023-02-01T19:04:32.443Z,4.15
2023-02-01T19:07:01.609Z,3.97
2023-02-01T19:09:32.466Z,4.75
2023-02-01T19:12:00.888Z,3.35
2023-02-01T19:14:29.532Z,4.18
2023-02-01T19:16:58.359Z,4.05
2023-02-01T19:20:43.794Z,4.07
2023-02-01T19:25:46.175Z,4.28
2023-02-01T19:28:14.626Z,3.90
2023-02-01T19:30:44.880Z,3.50
2023-02-01T19:33:13.940Z,3.95
2023-02-01T19:35:42.399Z,4.88
2023-02-01T19:38:11.394Z,4.97
2023-02-01T19:40:42.140Z,4.65
2023-02-01T19:43:10.333Z,4.20
2023-02-01T19:45:38.484Z,4.47
2023-02-01T19:48:07.880Z,4.10
2023-02-01T19:50:36.213Z,3.90
2023-02-01T19:53:05.064Z,3.83
2023-02-01T19:55:35.635Z,4.15
2023-02-01T19:58:06.971Z,4.43
2023-02-01T20:00:35.991Z,3.17
2023-02-01T20:03:05.013Z,4.25
2023-02-01T20:05:34.576Z,3.13
2023-02-01T20:08:03.470Z,3.45
2023-02-01T20:10:31.670Z,4.55
2023-02-01T20:12:59.833Z,5.25
2023-02-01T20:15:29.378Z,3.72
2023-02-01T20:17:57.624Z,3.70
2023-02-01T20:20:26.329Z,3.83
2023-02-01T20:22:54.745Z,4.03
2023-02-01T20:25:23.346Z,3.97
2023-02-01T20:27:52.725Z,3.95
2023-02-01T20:30:21.771Z,6.22
2023-02-01T20:32:53.137Z,4.38
2023-02-01T20:35:22.424Z,4.00
2023-02-01T20:37:51.885Z,3.92
2023-02-01T20:40:21.460Z,4.40
2023-02-01T20:42:49.644Z,3.95
2023-02-01T20:45:18.969Z,4.40
2023-02-01T20:47:52.693Z,4.05
2023-02-01T20:52:49.855Z,4.38
2023-02-01T20:55:18.866Z,3.85
2023-02-01T20:57:47.058Z,3.80
2023-02-01T21:00:16.080Z,5.20
2023-02-01T21:02:44.527Z,4.57
2023-02-01T21:05:14.848Z,4.38
2023-02-01T21:07:43.687Z,4.38
2023-02-01T21:10:12.996Z,4.18
2023-02-01T21:12:41.373Z,4.47
2023-02-01T21:15:10.823Z,4.63
2023-02-01T21:17:40.078Z,5.35
2023-02-01T21:20:10.053Z,3.60
2023-02-01T21:22:39.868Z,4.45
2023-02-01T21:25:09.949Z,3.88
2023-02-01T21:27:38.437Z,4.13
2023-02-01T21:30:08.358Z,3.85
2023-02-01T21:32:36.887Z,4.47
2023-02-01T21:35:06.792Z,4.43
2023-02-01T21:37:35.925Z,3.97
2023-02-01T21:40:06.544Z,4.53
2023-02-01T21:42:34.676Z,3.85
2023-02-01T21:45:04.249Z,4.45
2023-02-01T21:47:33.298Z,3.83
2023-02-01T21:50:02.563Z,3.80
2023-02-01T21:52:33.146Z,4.05
2023-02-01T21:55:01.500Z,4.97
2023-02-01T21:57:31.047Z,3.38
2023-02-01T21:59:59.371Z,3.28
2023-02-01T22:02:28.677Z,3.75
2023-02-01T22:04:58.607Z,3.75
2023-02-01T22:07:26.618Z,3.38
2023-02-01T22:09:54.764Z,3.33
2023-02-01T22:12:23.920Z,4.07
2023-02-01T22:14:53.503Z,4.35
2023-02-01T22:17:21.768Z,3.55
2023-02-01T22:19:50.281Z,4.03
2023-02-01T22:22:18.452Z,3.92
2023-02-01T22:24:46.377Z,4.03
2023-02-01T22:27:14.820Z,3.25
2023-02-01T22:29:44.545Z,3.17
2023-02-01T22:32:14.541Z,3.17
2023-02-01T22:34:43.030Z,5.43
2023-02-01T22:37:12.072Z,3.45
2023-02-01T22:39:41.216Z,4.70
2023-02-01T22:42:09.324Z,3.83
2023-02-01T22:44:39.038Z,4.50
2023-02-01T22:47:07.695Z,3.55
2023-02-01T22:49:37.183Z,3.10
2023-02-01T22:52:07.872Z,4.05
2023-02-01T22:54:36.259Z,4.07
2023-02-01T22:57:04.712Z,4.13
2023-02-01T22:59:33.323Z,4.28
2023-02-01T23:02:01.316Z,4.32
2023-02-01T23:04:29.351Z,4.13
2023-02-01T23:06:59.942Z,4.45
2023-02-01T23:09:28.058Z,3.28
2023-02-01T23:11:56.312Z,4.47
2023-02-01T23:14:24.710Z,4.15
2023-02-01T23:16:53.061Z,4.38
2023-02-01T23:19:21.902Z,4.05
2023-02-01T23:21:50.472Z,4.07
2023-02-01T23:24:20.091Z,3.78
2023-02-01T23:26:48.118Z,3.83
2023-02-01T23:29:19.201Z,4.20
2023-02-01T23:31:47.202Z,3.88
2023-02-01T23:34:15.580Z,4.32
2023-02-01T23:36:44.895Z,4.68
2023-02-01T23:39:13.209Z,4.38
2023-02-01T23:41:42.711Z,4.65
2023-02-01T23:44:11.499Z,4.88
2023-02-01T23:46:41.214Z,3.92
2023-02-01T23:49:10.506Z,4.00
2023-02-01T23:51:39.076Z,3.90
2023-02-01T23:54:08.250Z,3.83
2023-02-01T23:56:38.847Z,4.32
2023-02-01T23:59:11.179Z,3.88
